Time;durP1;ratioP1;P1;durP2;ratioP2;P2;SDS_P1;SDS_P2;PMS_P1;PMS_P2;Temp;Humidity;BMP_temperature;BMP_pressure;BME280_temperature;BME280_humidity;BME280_pressure;Samples;Min_cycle;Max_cycle;Signal;HPM_P1;HPM_P2
2024/01/23 00:01:35;;;;;;;53.20;31.20;;;;;;;;;;10480106;28;20420;-84
2024/01/23 00:06:37;;;;;;;56.80;32.57;;;;;;;;;;10482295;28;20406;-83
2024/01/23 00:11:41;;;;;;;49.38;30.40;;;;;;;;;;10489120;28;20947;-83
2024/01/23 00:16:43;;;;;;;48.40;30.50;;;;;;;;;;10481769;28;20402;-83
2024/01/23 00:21:46;;;;;;;54.63;30.70;;;;;;;;;;10482645;28;20428;-84
2024/01/23 00:26:50;;;;;;;52.38;30.10;;;;;;;;;;10482953;28;20406;-83
2024/01/23 00:31:52;;;;;;;45.08;27.63;;;;;;;;;;10478812;28;20491;-84
2024/01/23 00:36:54;;;;;;;47.60;28.73;;;;;;;;;;10478231;28;20436;-84
2024/01/23 00:41:58;;;;;;;46.70;26.30;;;;;;;;;;10471255;28;20451;-84
2024/01/23 00:47:00;;;;;;;45.53;27.08;;;;;;;;;;10474532;28;20824;-84
2024/01/23 00:52:03;;;;;;;44.03;27.38;;;;;;;;;;10474159;28;20433;-84
2024/01/23 00:57:06;;;;;;;42.67;26.23;;;;;;;;;;10467828;28;20472;-84
2024/01/23 01:02:09;;;;;;;52.40;28.43;;;;;;;;;;10509525;28;20432;-84
2024/01/23 01:07:11;;;;;;;41.50;26.25;;;;;;;;;;10487217;28;20755;-84
2024/01/23 01:12:15;;;;;;;41.80;26.35;;;;;;;;;;10481120;28;20402;-83
2024/01/23 01:17:18;;;;;;;41.33;23.70;;;;;;;;;;10479546;28;20455;-83
2024/01/23 01:22:20;;;;;;;42.93;25.07;;;;;;;;;;10485462;28;20473;-82
2024/01/23 01:27:24;;;;;;;36.92;24.08;;;;;;;;;;10487104;28;20496;-84
2024/01/23 01:32:26;;;;;;;40.45;24.38;;;;;;;;;;10480085;28;20455;-84
2024/01/23 01:37:28;;;;;;;39.33;24.33;;;;;;;;;;10483383;28;20517;-84
2024/01/23 01:42:32;;;;;;;42.33;24.38;;;;;;;;;;10483408;28;20461;-84
2024/01/23 01:47:35;;;;;;;38.03;23.47;;;;;;;;;;10479956;28;20463;-83
2024/01/23 01:52:37;;;;;;;40.85;24.33;;;;;;;;;;10485250;28;20953;-84
2024/01/23 01:57:41;;;;;;;36.20;22.88;;;;;;;;;;10481950;28;20406;-84
2024/01/23 02:02:47;;;;;;;39.60;23.33;;;;;;;;;;10479597;28;20846;-84
2024/01/23 02:07:50;;;;;;;41.25;22.38;;;;;;;;;;10482853;28;20432;-84
2024/01/23 02:12:53;;;;;;;39.00;23.75;;;;;;;;;;10481436;28;20451;-84
2024/01/23 02:17:56;;;;;;;38.88;23.25;;;;;;;;;;10482688;28;20463;-84
2024/01/23 02:22:58;;;;;;;39.45;23.25;;;;;;;;;;10481596;28;20459;-84
2024/01/23 02:28:02;;;;;;;38.88;22.08;;;;;;;;;;10474829;28;20414;-84
2024/01/23 02:33:05;;;;;;;40.80;23.07;;;;;;;;;;10493481;28;20417;-84
2024/01/23 02:38:08;;;;;;;35.60;20.00;;;;;;;;;;10453994;28;20404;-85
2024/01/23 02:43:12;;;;;;;31.20;18.23;;;;;;;;;;10492048;28;20449;-85
2024/01/23 02:48:15;;;;;;;36.47;19.00;;;;;;;;;;10485498;28;20408;-84
2024/01/23 02:53:17;;;;;;;28.08;17.08;;;;;;;;;;10515132;28;20402;-83
2024/01/23 02:58:21;;;;;;;23.57;14.97;;;;;;;;;;10485325;28;20405;-84
2024/01/23 03:03:23;;;;;;;23.05;13.55;;;;;;;;;;10474962;28;20503;-84
2024/01/23 03:08:26;;;;;;;20.20;13.00;;;;;;;;;;10481040;28;20471;-85
2024/01/23 03:13:29;;;;;;;19.48;12.00;;;;;;;;;;10474771;28;20806;-85
2024/01/23 03:18:32;;;;;;;20.92;12.23;;;;;;;;;;10476552;28;21155;-84
2024/01/23 03:23:34;;;;;;;19.58;11.70;;;;;;;;;;10475340;28;20455;-83
2024/01/23 03:28:38;;;;;;;19.75;12.25;;;;;;;;;;10478972;28;20442;-84
2024/01/23 03:33:41;;;;;;;21.63;12.10;;;;;;;;;;10475424;28;20949;-84
2024/01/23 03:38:44;;;;;;;17.03;10.43;;;;;;;;;;10477525;28;20414;-84
2024/01/23 03:43:47;;;;;;;18.67;11.57;;;;;;;;;;10472513;28;20425;-84
2024/01/23 03:48:50;;;;;;;19.65;10.60;;;;;;;;;;10479344;28;20404;-84
2024/01/23 03:53:52;;;;;;;17.13;11.10;;;;;;;;;;10486586;28;20858;-84
2024/01/23 03:58:56;;;;;;;18.73;10.68;;;;;;;;;;10486335;28;21172;-85
2024/01/23 04:03:58;;;;;;;15.52;9.57;;;;;;;;;;10480727;28;20471;-85
2024/01/23 04:09:02;;;;;;;13.27;8.63;;;;;;;;;;10491909;28;20402;-85
2024/01/23 04:14:06;;;;;;;15.10;9.65;;;;;;;;;;10481015;28;20813;-84
2024/01/23 04:19:09;;;;;;;14.68;9.48;;;;;;;;;;10481213;28;20780;-84
2024/01/23 04:24:11;;;;;;;13.23;8.57;;;;;;;;;;10480352;28;20449;-84
2024/01/23 04:29:15;;;;;;;15.00;8.57;;;;;;;;;;10484005;28;21046;-84
2024/01/23 04:34:18;;;;;;;14.53;8.23;;;;;;;;;;10490166;28;20428;-83
2024/01/23 04:39:20;;;;;;;15.23;8.55;;;;;;;;;;10470602;28;20404;-84
2024/01/23 04:44:24;;;;;;;13.07;8.50;;;;;;;;;;10481599;28;20424;-84
2024/01/23 04:49:26;;;;;;;14.30;8.77;;;;;;;;;;10464856;28;20474;-84
2024/01/23 04:54:28;;;;;;;15.23;9.02;;;;;;;;;;10461762;28;20416;-84
2024/01/23 04:59:32;;;;;;;12.75;8.68;;;;;;;;;;10466866;28;20400;-84
2024/01/23 05:04:35;;;;;;;15.45;8.85;;;;;;;;;;10481034;28;20546;-84
2024/01/23 05:09:37;;;;;;;13.60;8.80;;;;;;;;;;10481791;28;20945;-84
2024/01/23 05:14:41;;;;;;;15.70;9.00;;;;;;;;;;10478950;28;20451;-85
2024/01/23 05:19:43;;;;;;;15.45;10.35;;;;;;;;;;10481886;28;21218;-84
2024/01/23 05:24:45;;;;;;;15.00;9.47;;;;;;;;;;10482789;28;20418;-84
2024/01/23 05:29:49;;;;;;;14.60;8.93;;;;;;;;;;10480952;28;20778;-84
2024/01/23 05:34:52;;;;;;;16.08;9.15;;;;;;;;;;10483085;28;20436;-83
2024/01/23 05:39:54;;;;;;;13.40;8.20;;;;;;;;;;10481169;28;20438;-84
2024/01/23 05:44:58;;;;;;;13.20;7.80;;;;;;;;;;10478746;28;20489;-84
2024/01/23 05:50:01;;;;;;;13.38;8.15;;;;;;;;;;10469787;28;20485;-84
2024/01/23 05:55:04;;;;;;;15.57;8.73;;;;;;;;;;10461106;28;20406;-84
2024/01/23 06:00:13;;;;;;;14.93;8.63;;;;;;;;;;10470822;28;20469;-83
2024/01/23 06:05:15;;;;;;;12.90;8.27;;;;;;;;;;10464998;28;20431;-83
2024/01/23 06:10:18;;;;;;;15.13;8.93;;;;;;;;;;10488929;28;20445;-83
2024/01/23 06:15:22;;;;;;;14.60;8.57;;;;;;;;;;10473321;28;20469;-83
2024/01/23 06:20:24;;;;;;;13.77;8.23;;;;;;;;;;10481284;28;20812;-83
2024/01/23 06:25:27;;;;;;;15.73;9.20;;;;;;;;;;10481225;28;20450;-82
2024/01/23 06:30:30;;;;;;;15.32;9.13;;;;;;;;;;10507812;28;20441;-82
2024/01/23 06:35:33;;;;;;;12.65;8.05;;;;;;;;;;10485664;28;20400;-81
2024/01/23 06:40:35;;;;;;;14.37;8.13;;;;;;;;;;10467579;28;20451;-82
2024/01/23 06:45:39;;;;;;;13.65;7.97;;;;;;;;;;10479486;28;20484;-83
2024/01/23 06:50:44;;;;;;;13.38;7.38;;;;;;;;;;10466084;28;20487;-84
2024/01/23 06:55:46;;;;;;;12.60;7.70;;;;;;;;;;10484831;28;20406;-84
2024/01/23 07:00:50;;;;;;;16.33;8.38;;;;;;;;;;10473192;28;20491;-83
2024/01/23 07:05:52;;;;;;;16.75;8.00;;;;;;;;;;10482440;28;20423;-84
2024/01/23 07:10:55;;;;;;;11.60;7.07;;;;;;;;;;10477907;28;20408;-85
2024/01/23 07:15:58;;;;;;;15.85;7.50;;;;;;;;;;10477574;28;20953;-84
2024/01/23 07:21:01;;;;;;;16.70;8.73;;;;;;;;;;10477534;28;20878;-85
2024/01/23 07:26:04;;;;;;;12.00;7.07;;;;;;;;;;10477864;28;20410;-85
2024/01/23 07:31:07;;;;;;;11.20;7.10;;;;;;;;;;10455148;28;20870;-84
2024/01/23 07:36:10;;;;;;;19.50;9.73;;;;;;;;;;10488925;28;20406;-85
2024/01/23 07:41:12;;;;;;;16.17;8.63;;;;;;;;;;10488890;28;20406;-85
2024/01/23 07:46:16;;;;;;;26.20;13.55;;;;;;;;;;10486741;28;20414;-85
2024/01/23 07:51:19;;;;;;;22.80;12.67;;;;;;;;;;10491144;28;20462;-84
2024/01/23 07:56:21;;;;;;;24.13;12.20;;;;;;;;;;10483519;28;20396;-84
2024/01/23 08:01:25;;;;;;;19.80;11.47;;;;;;;;;;10480854;28;20921;-84
2024/01/23 08:06:27;;;;;;;15.93;9.90;;;;;;;;;;10485854;28;20430;-84
2024/01/23 08:11:29;;;;;;;16.42;9.38;;;;;;;;;;10476824;28;20951;-84
2024/01/23 08:16:33;;;;;;;16.85;10.20;;;;;;;;;;10477725;28;20412;-84
2024/01/23 08:21:36;;;;;;;18.90;10.15;;;;;;;;;;10504014;28;20447;-84
2024/01/23 08:26:38;;;;;;;16.85;9.48;;;;;;;;;;10500465;22;21135;-84
2024/01/23 08:31:42;;;;;;;15.73;9.25;;;;;;;;;;10510864;28;20443;-83
2024/01/23 08:36:44;;;;;;;16.58;8.95;;;;;;;;;;10543591;28;20398;-84
2024/01/23 08:41:47;;;;;;;16.40;8.55;;;;;;;;;;10520380;28;20426;-84
2024/01/23 08:46:51;;;;;;;13.07;8.10;;;;;;;;;;10516985;28;20891;-85
2024/01/23 08:51:53;;;;;;;15.45;8.73;;;;;;;;;;10517697;28;20404;-84
2024/01/23 08:56:56;;;;;;;16.77;9.52;;;;;;;;;;10524730;28;20475;-85
2024/01/23 09:02:00;;;;;;;19.07;10.93;;;;;;;;;;10514889;28;20477;-84
2024/01/23 09:07:03;;;;;;;16.13;9.50;;;;;;;;;;10513563;28;20874;-85
2024/01/23 09:12:06;;;;;;;15.60;8.43;;;;;;;;;;10512091;28;20947;-85
2024/01/23 09:17:10;;;;;;;15.15;8.93;;;;;;;;;;10517205;28;20408;-84
2024/01/23 09:22:13;;;;;;;12.40;7.82;;;;;;;;;;10512250;28;20853;-85
2024/01/23 09:27:15;;;;;;;15.18;7.82;;;;;;;;;;10507043;28;20555;-84
2024/01/23 09:32:19;;;;;;;14.35;8.45;;;;;;;;;;10509791;28;20428;-84
2024/01/23 09:37:22;;;;;;;15.48;7.90;;;;;;;;;;10517213;28;20832;-85
2024/01/23 09:42:24;;;;;;;13.23;7.80;;;;;;;;;;10512621;28;20525;-85
2024/01/23 09:47:28;;;;;;;12.80;7.70;;;;;;;;;;10514886;28;20405;-85
2024/01/23 09:52:33;;;;;;;11.45;7.18;;;;;;;;;;10521257;28;20400;-84
2024/01/23 09:57:36;;;;;;;13.27;8.15;;;;;;;;;;10508451;28;20410;-85
2024/01/23 10:02:41;;;;;;;12.75;8.27;;;;;;;;;;10512921;28;20442;-84
2024/01/23 10:07:44;;;;;;;14.98;8.93;;;;;;;;;;10504937;28;20462;-85
2024/01/23 10:12:48;;;;;;;14.85;8.30;;;;;;;;;;10507168;28;20402;-85
2024/01/23 10:17:53;;;;;;;12.88;8.65;;;;;;;;;;10514571;28;20499;-85
2024/01/23 10:22:58;;;;;;;12.52;8.18;;;;;;;;;;10516631;28;20511;-85
2024/01/23 10:28:00;;;;;;;12.70;8.10;;;;;;;;;;10539577;28;20484;-85
2024/01/23 10:33:06;;;;;;;13.07;8.27;;;;;;;;;;10508210;28;20453;-84
2024/01/23 10:38:13;;;;;;;15.05;8.52;;;;;;;;;;10501804;28;20460;-83
2024/01/23 10:43:17;;;;;;;15.07;8.80;;;;;;;;;;10498575;28;20929;-84
2024/01/23 10:48:20;;;;;;;15.00;9.05;;;;;;;;;;10512657;28;20406;-84
2024/01/23 10:53:29;;;;;;;16.83;9.57;;;;;;;;;;10519462;28;20452;-84
2024/01/23 10:58:36;;;;;;;15.75;8.73;;;;;;;;;;10515365;28;20528;-84
2024/01/23 11:03:40;;;;;;;22.48;11.45;;;;;;;;;;10515470;28;20905;-84
2024/01/23 11:08:48;;;;;;;14.32;8.85;;;;;;;;;;10515619;28;20407;-85
2024/01/23 11:13:56;;;;;;;14.02;9.02;;;;;;;;;;10521088;28;20402;-84
2024/01/23 11:19:00;;;;;;;16.00;8.95;;;;;;;;;;10519038;28;20833;-85
2024/01/23 11:24:04;;;;;;;13.73;9.18;;;;;;;;;;10516533;28;20456;-84
2024/01/23 11:29:07;;;;;;;17.57;8.77;;;;;;;;;;10521872;28;20428;-84
2024/01/23 11:34:40;;;;;;;14.67;7.97;;;;;;;;;;10515857;28;20809;-84
2024/01/23 11:39:45;;;;;;;13.48;8.57;;;;;;;;;;10515956;28;20481;-85
2024/01/23 11:44:47;;;;;;;16.20;8.73;;;;;;;;;;10494914;28;20452;-84
2024/01/23 11:49:51;;;;;;;14.13;8.90;;;;;;;;;;10522384;28;20440;-84
2024/01/23 11:54:53;;;;;;;13.63;8.45;;;;;;;;;;10510720;28;20934;-84
2024/01/23 11:59:56;;;;;;;13.77;8.20;;;;;;;;;;10507815;28;20464;-84
2024/01/23 12:05:00;;;;;;;14.10;8.10;;;;;;;;;;10512843;28;20502;-84
2024/01/23 12:10:02;;;;;;;13.25;8.23;;;;;;;;;;10498678;28;20447;-84
2024/01/23 12:15:06;;;;;;;12.73;7.85;;;;;;;;;;10532192;28;20407;-84
2024/01/23 12:20:10;;;;;;;12.03;7.70;;;;;;;;;;10524976;28;20480;-83
2024/01/23 12:25:13;;;;;;;11.67;7.53;;;;;;;;;;10503959;28;20449;-84
2024/01/23 12:30:16;;;;;;;11.25;7.25;;;;;;;;;;10498701;28;20820;-85
2024/01/23 12:35:21;;;;;;;12.32;7.03;;;;;;;;;;10509218;28;20425;-84
2024/01/23 12:40:23;;;;;;;13.97;7.10;;;;;;;;;;10507167;28;20957;-85
2024/01/23 12:45:26;;;;;;;11.85;7.60;;;;;;;;;;10505831;28;20449;-84
2024/01/23 12:50:31;;;;;;;10.90;6.80;;;;;;;;;;10510132;28;20456;-84
2024/01/23 12:55:33;;;;;;;13.73;7.35;;;;;;;;;;10509801;28;20781;-84
2024/01/23 13:00:35;;;;;;;11.63;6.97;;;;;;;;;;10510360;28;20417;-84
2024/01/23 13:05:40;;;;;;;11.80;7.10;;;;;;;;;;10508268;28;20508;-84
2024/01/23 13:10:42;;;;;;;11.80;6.47;;;;;;;;;;10490385;28;20437;-85
2024/01/23 13:15:44;;;;;;;11.02;6.72;;;;;;;;;;10498758;28;20503;-84
2024/01/23 13:20:48;;;;;;;18.95;10.60;;;;;;;;;;10502404;28;20441;-83
2024/01/23 13:25:52;;;;;;;12.50;7.83;;;;;;;;;;10479358;28;20440;-83
2024/01/23 13:30:54;;;;;;;11.05;6.72;;;;;;;;;;10486662;28;20445;-84
2024/01/23 13:36:00;;;;;;;13.20;7.83;;;;;;;;;;10488086;28;20426;-83
2024/01/23 13:41:03;;;;;;;14.13;8.32;;;;;;;;;;10489265;28;20522;-82
2024/01/23 13:46:06;;;;;;;13.38;8.18;;;;;;;;;;10490680;28;20457;-83
2024/01/23 13:51:10;;;;;;;12.85;6.82;;;;;;;;;;10500565;28;20911;-83
2024/01/23 13:56:12;;;;;;;26.67;13.17;;;;;;;;;;10504414;28;20417;-83
2024/01/23 14:01:14;;;;;;;15.45;8.60;;;;;;;;;;10488419;28;20447;-83
2024/01/23 14:06:18;;;;;;;14.90;7.65;;;;;;;;;;10514215;28;20563;-83
2024/01/23 14:11:21;;;;;;;12.82;7.00;;;;;;;;;;10496895;28;20487;-84
2024/01/23 14:16:23;;;;;;;11.93;7.27;;;;;;;;;;10494878;28;20496;-83
2024/01/23 14:21:27;;;;;;;10.18;6.80;;;;;;;;;;10494502;28;20443;-84
2024/01/23 16:54:42;;;;;;;37.17;16.33;;;;;;;;;;10521303;27;20977;-85
2024/01/23 16:59:46;;;;;;;29.75;14.57;;;;;;;;;;10520552;28;20426;-86
2024/01/23 17:04:52;;;;;;;37.37;17.30;;;;;;;;;;10513016;28;21213;-86
2024/01/23 17:09:54;;;;;;;32.80;16.42;;;;;;;;;;10516637;28;20448;-86
2024/01/23 17:14:58;;;;;;;31.90;15.02;;;;;;;;;;10510725;28;20438;-86
2024/01/23 17:20:00;;;;;;;30.00;15.52;;;;;;;;;;10507566;28;20484;-83
2024/01/23 17:25:05;;;;;;;33.10;15.93;;;;;;;;;;10518655;28;20448;-85
2024/01/23 17:30:13;;;;;;;28.17;14.88;;;;;;;;;;10509371;28;20548;-85
2024/01/23 17:35:18;;;;;;;33.47;18.83;;;;;;;;;;10500233;28;20414;-85
2024/01/23 17:40:23;;;;;;;35.13;17.75;;;;;;;;;;10514808;28;20507;-84
2024/01/23 17:45:27;;;;;;;37.38;21.08;;;;;;;;;;10522233;28;20460;-84
2024/01/23 17:50:34;;;;;;;30.85;18.17;;;;;;;;;;10508641;28;20377;-83
2024/01/23 17:55:39;;;;;;;42.10;21.33;;;;;;;;;;10524209;28;20438;-83
2024/01/23 18:00:43;;;;;;;38.97;20.35;;;;;;;;;;10509413;28;20447;-83
2024/01/23 18:05:45;;;;;;;34.13;18.67;;;;;;;;;;10519547;28;20452;-83
2024/01/23 18:10:49;;;;;;;36.85;20.05;;;;;;;;;;10512846;28;20557;-83
2024/01/23 18:15:59;;;;;;;35.42;19.73;;;;;;;;;;10515246;28;20825;-82
2024/01/23 18:21:01;;;;;;;36.55;20.10;;;;;;;;;;10511770;28;20404;-82
2024/01/23 18:26:10;;;;;;;33.90;20.17;;;;;;;;;;10503100;28;20459;-82
2024/01/23 18:31:14;;;;;;;35.47;19.58;;;;;;;;;;10519092;28;20506;-83
2024/01/23 18:36:20;;;;;;;33.27;20.60;;;;;;;;;;10516474;28;21196;-83
2024/01/23 18:41:30;;;;;;;38.10;21.23;;;;;;;;;;10516380;28;20489;-83
2024/01/23 18:46:34;;;;;;;34.78;20.65;;;;;;;;;;10510884;28;20447;-83
2024/01/23 18:51:36;;;;;;;39.90;20.37;;;;;;;;;;10519329;28;20436;-83
2024/01/23 18:56:38;;;;;;;36.20;20.90;;;;;;;;;;10513189;28;20524;-83
2024/01/23 19:01:42;;;;;;;35.80;20.88;;;;;;;;;;10526899;28;20497;-84
2024/01/23 19:06:45;;;;;;;45.45;23.83;;;;;;;;;;10532137;28;20480;-83
2024/01/23 19:11:53;;;;;;;48.40;27.13;;;;;;;;;;10522934;28;20497;-83
2024/01/23 19:16:59;;;;;;;44.80;24.60;;;;;;;;;;10523920;28;20502;-83
2024/01/23 19:22:05;;;;;;;53.38;26.55;;;;;;;;;;10528272;28;20479;-82
2024/01/23 19:27:08;;;;;;;45.95;27.52;;;;;;;;;;10517458;28;20444;-82
2024/01/23 19:32:12;;;;;;;47.47;27.93;;;;;;;;;;10519323;28;20515;-83
2024/01/23 19:37:14;;;;;;;50.50;28.23;;;;;;;;;;10519946;28;20495;-83
2024/01/23 19:42:17;;;;;;;49.97;28.43;;;;;;;;;;10519339;28;21430;-84
2024/01/23 19:47:22;;;;;;;51.97;29.67;;;;;;;;;;10541842;28;20419;-84
2024/01/23 19:52:24;;;;;;;54.13;29.93;;;;;;;;;;10537811;28;20791;-83
2024/01/23 19:57:29;;;;;;;52.42;28.20;;;;;;;;;;10526603;28;20505;-82
2024/01/23 20:02:33;;;;;;;50.58;29.08;;;;;;;;;;10517708;28;21426;-82
2024/01/23 20:07:39;;;;;;;56.67;30.13;;;;;;;;;;10512766;28;20513;-84
2024/01/23 20:12:45;;;;;;;54.08;30.52;;;;;;;;;;10519002;28;20534;-83
2024/01/23 20:17:50;;;;;;;53.47;29.27;;;;;;;;;;10521897;28;20492;-82
2024/01/23 20:22:52;;;;;;;52.75;29.67;;;;;;;;;;10511660;28;20560;-84
2024/01/23 20:27:57;;;;;;;50.72;28.70;;;;;;;;;;10508808;28;20482;-85
2024/01/23 20:33:00;;;;;;;47.73;28.07;;;;;;;;;;10517971;28;20522;-85
2024/01/23 20:38:03;;;;;;;52.67;27.98;;;;;;;;;;10514205;28;20450;-83
2024/01/23 20:43:06;;;;;;;54.23;29.73;;;;;;;;;;10529446;28;20449;-84
2024/01/23 20:48:10;;;;;;;47.20;28.17;;;;;;;;;;10515998;28;20486;-83
2024/01/23 20:53:12;;;;;;;48.60;27.50;;;;;;;;;;10529734;28;20462;-84
2024/01/23 20:58:15;;;;;;;47.65;27.58;;;;;;;;;;10539515;28;20460;-84
2024/01/23 21:03:18;;;;;;;50.80;26.60;;;;;;;;;;10542072;28;20424;-84
2024/01/23 21:08:21;;;;;;;46.53;27.35;;;;;;;;;;10524095;28;20464;-84
2024/01/23 21:13:24;;;;;;;46.17;25.07;;;;;;;;;;10515113;28;20447;-84
2024/01/23 21:18:27;;;;;;;37.40;23.23;;;;;;;;;;10515577;28;20486;-84
2024/01/23 21:23:30;;;;;;;36.40;20.73;;;;;;;;;;10530201;28;20426;-83
2024/01/23 21:28:32;;;;;;;37.83;22.20;;;;;;;;;;10511169;28;20912;-84
2024/01/23 21:33:36;;;;;;;39.08;21.77;;;;;;;;;;10518310;28;20959;-84
2024/01/23 21:38:38;;;;;;;37.47;21.80;;;;;;;;;;10529673;28;20417;-84
2024/01/23 21:43:40;;;;;;;38.47;21.73;;;;;;;;;;10509693;28;20433;-84
2024/01/23 21:48:47;;;;;;;38.33;22.05;;;;;;;;;;10516841;28;20454;-83
2024/01/23 21:53:49;;;;;;;35.85;21.17;;;;;;;;;;10507783;28;20412;-84
2024/01/23 21:58:51;;;;;;;38.53;20.73;;;;;;;;;;10516124;28;20412;-84
2024/01/23 22:03:55;;;;;;;34.50;20.27;;;;;;;;;;10512274;28;20469;-85
2024/01/23 22:08:57;;;;;;;36.30;20.05;;;;;;;;;;10514376;28;20888;-83
2024/01/23 22:14:00;;;;;;;34.20;19.50;;;;;;;;;;10512477;28;20545;-84
2024/01/23 22:19:04;;;;;;;35.03;19.00;;;;;;;;;;10519072;28;20720;-85
2024/01/23 22:24:07;;;;;;;30.50;18.77;;;;;;;;;;10509712;28;20450;-84
2024/01/23 22:29:10;;;;;;;34.00;18.98;;;;;;;;;;10513664;28;20588;-84
2024/01/23 22:34:13;;;;;;;33.83;18.27;;;;;;;;;;10513089;28;20448;-84
2024/01/23 22:39:16;;;;;;;34.97;19.77;;;;;;;;;;10513255;28;20433;-84
2024/01/23 22:44:19;;;;;;;33.17;18.35;;;;;;;;;;10498651;28;20456;-84
2024/01/23 22:49:22;;;;;;;33.07;19.40;;;;;;;;;;10522010;28;21026;-82
2024/01/23 22:54:25;;;;;;;33.05;18.90;;;;;;;;;;10519885;28;20454;-84
2024/01/23 22:59:27;;;;;;;36.00;18.23;;;;;;;;;;10521167;28;20957;-83
2024/01/23 23:04:33;;;;;;;30.33;17.60;;;;;;;;;;10528512;28;20493;-82
2024/01/23 23:09:35;;;;;;;32.60;18.55;;;;;;;;;;10518516;28;20456;-83
2024/01/23 23:14:38;;;;;;;30.77;18.63;;;;;;;;;;10544074;28;20458;-83
2024/01/23 23:19:41;;;;;;;31.60;17.88;;;;;;;;;;10519737;28;20436;-83
2024/01/23 23:24:45;;;;;;;32.95;18.08;;;;;;;;;;10514550;28;20441;-83
2024/01/23 23:29:48;;;;;;;33.50;18.42;;;;;;;;;;10524431;28;20446;-83
2024/01/23 23:34:51;;;;;;;30.13;17.55;;;;;;;;;;10523932;28;20388;-82
2024/01/23 23:39:54;;;;;;;32.42;18.20;;;;;;;;;;10534863;28;20452;-85
2024/01/23 23:44:56;;;;;;;31.42;18.52;;;;;;;;;;10532459;28;20939;-84
2024/01/23 23:50:01;;;;;;;30.35;17.33;;;;;;;;;;10528366;28;20460;-84
2024/01/23 23:55:03;;;;;;;31.88;17.42;;;;;;;;;;10519379;28;20436;-84
